createdAt,value
2022-07-27T00:01:17.434Z,23.15
2022-07-27T00:04:04.352Z,21.25
2022-07-27T00:06:37.336Z,26.55
2022-07-27T00:09:26.271Z,26.58
2022-07-27T00:12:06.258Z,30.05
2022-07-27T00:14:53.286Z,23.20
2022-07-27T00:17:26.384Z,33.50
2022-07-27T00:20:13.300Z,25.33
2022-07-27T00:22:53.275Z,21.35
2022-07-27T00:25:40.288Z,35.65
2022-07-27T00:28:20.295Z,26.35
2022-07-27T00:31:07.318Z,22.40
2022-07-27T00:33:47.291Z,24.58
2022-07-27T00:36:41.278Z,28.65
2022-07-27T00:39:35.287Z,21.73
2022-07-27T00:42:34.279Z,24.85
2022-07-27T00:45:22.290Z,22.42
2022-07-27T00:47:55.418Z,22.42
2022-07-27T00:50:43.294Z,24.13
2022-07-27T00:53:24.309Z,23.00
2022-07-27T00:56:18.286Z,27.48
2022-07-27T00:59:05.307Z,37.80
2022-07-27T01:01:40.582Z,30.55
2022-07-27T01:04:27.290Z,36.25
2022-07-27T01:07:01.401Z,24.92
2022-07-27T01:10:04.285Z,24.20
2022-07-27T01:12:45.298Z,24.65
2022-07-27T01:15:39.336Z,27.67
2022-07-27T01:18:39.326Z,29.70
2022-07-27T01:21:22.293Z,22.15
2022-07-27T01:24:17.313Z,26.70
2022-07-27T01:27:04.319Z,26.05
2022-07-27T01:29:45.306Z,24.70
2022-07-27T01:32:32.322Z,22.67
2022-07-27T01:35:12.329Z,22.58
2022-07-27T01:38:06.360Z,23.85
2022-07-27T01:40:53.322Z,32.05
2022-07-27T01:43:34.294Z,23.63
2022-07-27T01:46:22.321Z,24.10
2022-07-27T01:48:55.516Z,23.65
2022-07-27T01:51:42.327Z,25.52
2022-07-27T01:54:23.331Z,36.17
2022-07-27T01:57:10.292Z,46.53
2022-07-27T01:59:50.355Z,28.92
2022-07-27T02:02:44.331Z,24.40
2022-07-27T02:05:31.374Z,23.50
2022-07-27T02:08:11.376Z,37.88
2022-07-27T02:11:17.346Z,35.00
2022-07-27T02:13:59.327Z,34.88
2022-07-27T02:16:53.318Z,21.40
2022-07-27T02:19:40.336Z,22.00
2022-07-27T02:22:22.327Z,28.13
2022-07-27T02:25:11.436Z,24.38
2022-07-27T02:27:52.355Z,24.48
2022-07-27T02:30:46.335Z,21.35
2022-07-27T02:33:33.345Z,23.98
2022-07-27T02:36:06.466Z,32.53
2022-07-27T02:38:53.353Z,29.17
2022-07-27T02:41:26.429Z,25.10
2022-07-27T02:44:13.347Z,24.17
2022-07-27T02:46:47.478Z,26.95
2022-07-27T02:49:34.350Z,25.10
2022-07-27T02:52:07.527Z,23.08
2022-07-27T02:54:54.392Z,25.63
2022-07-27T02:57:34.366Z,24.63
2022-07-27T03:00:30.468Z,25.60
2022-07-27T03:03:24.373Z,25.20
2022-07-27T03:06:31.401Z,37.10
2022-07-27T03:09:32.765Z,23.42
2022-07-27T03:12:27.350Z,49.17
2022-07-27T03:15:21.382Z,29.88
2022-07-27T03:18:08.388Z,24.42
2022-07-27T03:20:41.465Z,30.45
2022-07-27T03:23:28.385Z,57.55
2022-07-27T03:26:08.392Z,33.13
2022-07-27T03:28:55.385Z,26.88
2022-07-27T03:31:28.628Z,24.80
2022-07-27T03:34:15.361Z,25.73
2022-07-27T03:36:48.505Z,25.50
2022-07-27T03:39:35.361Z,24.83
2022-07-27T03:42:08.463Z,21.60
2022-07-27T03:44:55.409Z,21.48
2022-07-27T03:47:28.479Z,24.13
2022-07-27T03:50:15.378Z,23.05
2022-07-27T03:52:48.462Z,22.23
2022-07-27T03:55:35.402Z,23.48
2022-07-27T03:58:15.360Z,24.15
2022-07-27T04:01:02.452Z,22.40
2022-07-27T04:03:35.514Z,21.98
2022-07-27T04:06:22.384Z,24.05
2022-07-27T04:09:08.199Z,22.55
2022-07-27T04:11:55.694Z,22.30
2022-07-27T04:14:36.400Z,19.50
2022-07-27T04:17:55.202Z,20.55
2022-07-27T04:20:44.382Z,21.50
2022-07-27T04:23:36.148Z,21.63
2022-07-27T04:26:11.514Z,20.85
2022-07-27T04:28:58.385Z,20.45
2022-07-27T04:31:39.405Z,20.70
2022-07-27T04:34:26.428Z,21.92
2022-07-27T04:36:59.476Z,22.15
2022-07-27T04:39:46.391Z,22.77
2022-07-27T04:42:26.397Z,25.17
2022-07-27T04:45:13.404Z,24.98
2022-07-27T04:47:53.442Z,23.25
2022-07-27T04:50:52.403Z,19.15
2022-07-27T04:53:53.951Z,20.95
2022-07-27T04:56:52.423Z,21.50
2022-07-27T04:59:46.403Z,22.02
2022-07-27T05:02:40.433Z,22.52
2022-07-27T05:05:27.404Z,21.95
2022-07-27T05:08:00.597Z,26.75
2022-07-27T05:10:47.407Z,18.85
2022-07-27T05:13:21.567Z,17.90
2022-07-27T05:16:08.461Z,19.45
2022-07-27T05:18:49.417Z,19.80
2022-07-27T05:21:43.449Z,20.40
2022-07-27T05:24:37.423Z,20.00
2022-07-27T05:27:31.431Z,19.10
2022-07-27T05:30:25.475Z,17.38
2022-07-27T05:33:19.448Z,18.75
2022-07-27T05:36:13.425Z,19.42
2022-07-27T05:39:11.822Z,18.77
2022-07-27T05:42:07.420Z,17.08
2022-07-27T05:44:54.481Z,18.00
2022-07-27T05:47:27.505Z,19.38
2022-07-27T05:50:14.442Z,18.20
2022-07-27T05:52:47.651Z,19.00
2022-07-27T05:55:34.434Z,17.10
2022-07-27T05:58:14.426Z,20.75
2022-07-27T06:01:01.543Z,19.85
2022-07-27T06:03:34.545Z,21.17
2022-07-27T06:06:40.453Z,23.63
2022-07-27T06:09:13.854Z,24.58
2022-07-27T06:12:01.467Z,23.45
2022-07-27T06:14:34.511Z,17.98
2022-07-27T06:17:22.450Z,19.60
2022-07-27T06:19:55.901Z,22.73
2022-07-27T06:23:07.511Z,22.38
2022-07-27T06:25:41.544Z,20.35
2022-07-27T06:28:28.441Z,20.40
2022-07-27T06:31:01.557Z,19.38
2022-07-27T06:33:48.465Z,18.67
2022-07-27T06:36:26.009Z,20.52
2022-07-27T06:39:12.841Z,21.05
2022-07-27T06:41:46.596Z,19.25
2022-07-27T06:44:33.463Z,18.65
2022-07-27T06:47:14.496Z,18.33
2022-07-27T06:50:02.488Z,21.45
2022-07-27T06:52:35.554Z,21.02
2022-07-27T06:55:22.450Z,18.73
2022-07-27T06:57:55.565Z,20.27
2022-07-27T07:00:42.563Z,21.13
2022-07-27T07:03:22.527Z,22.50
2022-07-27T07:06:16.462Z,24.25
2022-07-27T07:09:10.745Z,22.45
2022-07-27T07:11:57.484Z,21.60
2022-07-27T07:14:30.547Z,22.02
2022-07-27T07:17:17.488Z,22.00
2022-07-27T07:19:53.582Z,21.02
2022-07-27T07:22:40.485Z,22.75
2022-07-27T07:25:14.567Z,20.13
2022-07-27T07:28:02.483Z,22.23
2022-07-27T07:30:36.580Z,20.77
2022-07-27T07:33:23.496Z,21.52
2022-07-27T07:36:14.040Z,24.17
2022-07-27T07:38:54.495Z,21.02
2022-07-27T07:41:36.482Z,19.35
2022-07-27T07:44:16.494Z,20.08
2022-07-27T07:46:56.639Z,20.30
2022-07-27T07:49:39.476Z,21.05
2022-07-27T07:52:34.505Z,22.17
2022-07-27T07:55:28.506Z,20.40
2022-07-27T07:58:16.520Z,20.35
2022-07-27T08:00:56.495Z,20.53
2022-07-27T08:03:51.283Z,19.77
2022-07-27T08:06:46.526Z,18.90
2022-07-27T08:09:34.534Z,19.75
2022-07-27T08:12:09.614Z,16.85
2022-07-27T08:14:56.517Z,17.63
2022-07-27T08:17:29.648Z,19.55
2022-07-27T08:20:17.506Z,21.75
2022-07-27T08:22:58.519Z,19.75
2022-07-27T08:25:55.526Z,17.45
2022-07-27T08:28:42.571Z,19.95
2022-07-27T08:31:22.664Z,21.05
2022-07-27T08:34:06.500Z,21.55
2022-07-27T08:36:46.625Z,20.13
2022-07-27T08:40:06.159Z,18.23
2022-07-27T08:42:27.629Z,19.48
2022-07-27T08:45:07.527Z,18.83
2022-07-27T08:47:48.567Z,18.70
2022-07-27T08:50:24.732Z,19.27
2022-07-27T08:53:14.534Z,18.55
2022-07-27T08:55:57.553Z,18.50
2022-07-27T08:58:51.537Z,17.42
2022-07-27T09:01:39.590Z,19.92
2022-07-27T09:04:15.671Z,19.50
2022-07-27T09:07:02.535Z,19.60
2022-07-27T09:09:50.681Z,17.33
2022-07-27T09:12:39.541Z,19.88
2022-07-27T09:15:18.109Z,18.88
2022-07-27T09:18:04.587Z,20.63
2022-07-27T09:20:37.817Z,18.02
2022-07-27T09:23:33.565Z,18.15
2022-07-27T09:26:36.656Z,19.23
2022-07-27T09:29:23.554Z,20.38
2022-07-27T09:32:05.549Z,18.17
2022-07-27T09:34:52.553Z,21.15
2022-07-27T09:37:41.563Z,19.45
2022-07-27T09:40:37.567Z,17.77
2022-07-27T09:46:17.744Z,22.90
2022-07-27T09:49:04.715Z,23.38
2022-07-27T09:52:02.679Z,20.95
2022-07-27T09:54:58.585Z,19.95
2022-07-27T09:58:05.567Z,19.17
2022-07-27T10:00:45.593Z,21.88
2022-07-27T10:03:39.583Z,18.80
2022-07-27T10:06:27.579Z,19.77
2022-07-27T10:09:02.707Z,21.15
2022-07-27T10:11:49.597Z,21.33
2022-07-27T10:14:29.716Z,21.10
2022-07-27T10:17:09.589Z,21.08
2022-07-27T10:19:54.905Z,20.33
2022-07-27T10:22:56.637Z,25.17
2022-07-27T10:25:38.606Z,23.17
2022-07-27T10:28:24.598Z,20.77
2022-07-27T10:31:24.649Z,20.58
2022-07-27T10:34:00.815Z,18.75
2022-07-27T10:36:57.589Z,20.55
2022-07-27T10:39:49.610Z,21.48
2022-07-27T10:42:46.091Z,19.45
2022-07-27T10:46:01.413Z,20.35
2022-07-27T10:48:49.674Z,20.83
2022-07-27T10:51:22.696Z,20.98
2022-07-27T10:54:29.397Z,21.33
2022-07-27T10:57:05.685Z,18.52
2022-07-27T11:00:08.599Z,21.95
2022-07-27T11:02:55.605Z,21.77
2022-07-27T11:05:59.641Z,21.67
2022-07-27T11:08:47.019Z,17.63
2022-07-27T11:11:35.632Z,18.90
2022-07-27T11:14:18.892Z,21.40
2022-07-27T11:19:56.434Z,20.00
2022-07-27T11:23:33.978Z,23.92
2022-07-27T11:25:39.667Z,18.85
2022-07-27T11:28:35.364Z,20.38
2022-07-27T11:31:09.493Z,19.77
2022-07-27T11:34:03.480Z,19.60
2022-07-27T11:36:55.436Z,20.05
2022-07-27T11:40:27.792Z,21.15
2022-07-27T11:43:03.364Z,21.35
2022-07-27T11:45:57.457Z,20.88
2022-07-27T11:49:08.340Z,20.58
2022-07-27T11:52:03.366Z,20.33
2022-07-27T11:54:57.499Z,21.85
2022-07-27T11:57:51.379Z,22.40
2022-07-27T12:00:54.417Z,23.02
2022-07-27T12:03:48.414Z,21.67
2022-07-27T12:06:35.383Z,23.50
2022-07-27T12:09:13.043Z,20.05
2022-07-27T12:12:05.370Z,20.85
2022-07-27T12:14:46.143Z,20.67
2022-07-27T12:17:41.371Z,21.00
2022-07-27T12:20:30.407Z,19.60
2022-07-27T12:23:18.405Z,21.67
2022-07-27T12:26:15.431Z,19.55
2022-07-27T12:29:24.380Z,21.13
2022-07-27T12:32:11.554Z,20.45
2022-07-27T12:34:44.487Z,20.15
2022-07-27T12:37:38.409Z,18.17
2022-07-27T12:40:20.561Z,20.23
2022-07-27T12:43:12.416Z,21.30
2022-07-27T12:45:46.576Z,19.55
2022-07-27T12:48:44.432Z,20.90
2022-07-27T12:51:17.480Z,19.88
2022-07-27T12:54:04.439Z,22.10
2022-07-27T12:56:37.479Z,20.23
2022-07-27T12:59:28.395Z,20.80
2022-07-27T13:02:08.486Z,21.48
2022-07-27T13:04:56.410Z,21.13
2022-07-27T13:07:36.425Z,19.90
2022-07-27T13:10:31.418Z,20.40
2022-07-27T13:13:18.413Z,20.27
2022-07-27T13:15:58.412Z,21.55
2022-07-27T13:18:52.398Z,23.23
2022-07-27T13:21:46.446Z,20.95
2022-07-27T13:24:33.442Z,19.60
2022-07-27T13:27:13.419Z,22.10
2022-07-27T13:30:00.435Z,22.52
2022-07-27T13:32:40.603Z,21.17
2022-07-27T13:35:34.417Z,17.73
2022-07-27T13:38:28.416Z,20.00
2022-07-27T13:41:15.441Z,21.48
2022-07-27T13:43:48.558Z,21.20
2022-07-27T13:46:35.440Z,21.70
2022-07-27T13:49:09.770Z,20.10
2022-07-27T13:51:56.496Z,21.73
2022-07-27T13:54:30.572Z,19.83
2022-07-27T13:57:17.574Z,21.40
2022-07-27T13:59:50.728Z,18.38
2022-07-27T14:02:37.577Z,17.90
2022-07-27T14:05:12.923Z,21.35
2022-07-27T14:08:03.335Z,20.75
2022-07-27T14:10:46.441Z,21.60
2022-07-27T14:13:33.445Z,20.67
2022-07-27T14:16:16.472Z,21.08
2022-07-27T14:19:12.752Z,22.13
2022-07-27T14:21:59.458Z,20.73
2022-07-27T14:24:37.598Z,21.27
2022-07-27T14:27:24.450Z,20.60
2022-07-27T14:29:57.627Z,20.27
2022-07-27T14:32:44.457Z,19.38
2022-07-27T14:35:17.589Z,19.40
2022-07-27T14:38:06.465Z,20.40
2022-07-27T14:40:46.457Z,20.25
2022-07-27T14:43:34.446Z,20.77
2022-07-27T14:46:07.578Z,18.60
2022-07-27T14:49:09.917Z,19.63
2022-07-27T14:51:50.495Z,21.38
2022-07-27T14:54:44.474Z,18.83
2022-07-27T14:57:38.482Z,18.73
2022-07-27T15:00:36.237Z,18.25
2022-07-27T15:03:31.478Z,19.58
2022-07-27T15:06:25.480Z,19.42
2022-07-27T15:09:12.787Z,17.08
2022-07-27T15:11:53.504Z,17.30
2022-07-27T15:14:47.508Z,19.65
2022-07-27T15:17:34.520Z,16.27
2022-07-27T15:20:32.488Z,19.48
2022-07-27T15:23:26.503Z,17.60
2022-07-27T15:26:13.489Z,19.10
2022-07-27T15:28:54.496Z,18.00
2022-07-27T15:31:48.593Z,16.73
2022-07-27T15:34:42.507Z,17.58
2022-07-27T15:37:29.507Z,18.58
2022-07-27T15:40:29.504Z,16.58
2022-07-27T15:43:19.506Z,18.33
2022-07-27T15:45:56.582Z,17.83
2022-07-27T15:48:43.516Z,17.60
2022-07-27T15:51:18.835Z,17.83
2022-07-27T15:54:05.512Z,19.92
2022-07-27T15:56:38.646Z,18.33
2022-07-27T15:59:26.521Z,18.88
2022-07-27T16:02:06.533Z,17.85
2022-07-27T16:05:01.552Z,18.20
2022-07-27T16:07:55.533Z,18.35
2022-07-27T16:10:51.542Z,19.13
2022-07-27T16:13:45.521Z,18.15
2022-07-27T16:16:39.568Z,17.08
2022-07-27T16:19:33.516Z,16.58
2022-07-27T16:22:20.530Z,17.10
2022-07-27T16:25:00.507Z,18.67
2022-07-27T16:27:54.546Z,18.23
2022-07-27T16:30:41.532Z,17.63
2022-07-27T16:33:21.519Z,16.67
2022-07-27T16:36:08.913Z,19.13
2022-07-27T16:38:50.325Z,18.23
2022-07-27T16:41:37.558Z,18.45
2022-07-27T16:44:10.603Z,17.75
2022-07-27T16:46:57.600Z,19.08
2022-07-27T16:49:37.582Z,19.05
2022-07-27T16:52:31.532Z,18.63
2022-07-27T16:55:18.560Z,17.38
2022-07-27T16:57:51.706Z,20.13
2022-07-27T17:00:39.014Z,19.40
2022-07-27T17:03:19.557Z,19.23
2022-07-27T17:06:13.553Z,17.98
2022-07-27T17:09:00.568Z,17.63
2022-07-27T17:11:37.474Z,19.25
2022-07-27T17:14:24.557Z,17.80
2022-07-27T17:17:04.550Z,18.60
2022-07-27T17:19:58.570Z,16.55
2022-07-27T17:22:52.560Z,18.90
2022-07-27T17:25:33.542Z,18.70
2022-07-27T17:28:13.585Z,18.02
2022-07-27T17:30:46.689Z,16.23
2022-07-27T17:33:33.585Z,18.48
2022-07-27T17:36:09.722Z,19.10
2022-07-27T17:39:01.601Z,16.55
2022-07-27T17:41:34.676Z,17.40
2022-07-27T17:44:21.578Z,18.67
2022-07-27T17:46:54.726Z,17.38
2022-07-27T17:49:41.592Z,17.48
2022-07-27T17:52:14.695Z,16.52
2022-07-27T17:55:01.575Z,19.10
2022-07-27T17:57:34.653Z,19.25
2022-07-27T18:00:21.608Z,20.38
2022-07-27T18:03:01.579Z,16.95
2022-07-27T18:05:55.643Z,18.33
2022-07-27T18:08:42.583Z,17.65
2022-07-27T18:11:15.895Z,17.23
2022-07-27T18:14:04.608Z,17.95
2022-07-27T18:16:40.678Z,19.05
2022-07-27T18:19:34.598Z,17.25
2022-07-27T18:22:28.601Z,17.83
2022-07-27T18:25:16.628Z,19.55
2022-07-27T18:27:56.603Z,19.95
2022-07-27T18:30:43.654Z,20.98
2022-07-27T18:33:16.715Z,20.17
2022-07-27T18:36:03.611Z,18.73
2022-07-27T18:38:43.607Z,17.92
2022-07-27T18:41:37.597Z,17.38
2022-07-27T18:44:25.648Z,17.75
2022-07-27T18:46:58.681Z,17.55
2022-07-27T18:49:45.602Z,18.60
2022-07-27T18:52:26.633Z,20.30
2022-07-27T18:55:13.599Z,18.75
2022-07-27T18:57:54.704Z,20.70
2022-07-27T19:00:48.614Z,21.02
2022-07-27T19:03:37.605Z,21.27
2022-07-27T19:06:17.865Z,22.10
2022-07-27T19:09:05.722Z,20.30
2022-07-27T19:11:47.038Z,20.73
2022-07-27T19:14:40.617Z,22.10
2022-07-27T19:17:22.726Z,20.08
2022-07-27T19:20:16.634Z,19.95
2022-07-27T19:23:10.629Z,20.00
2022-07-27T19:26:06.635Z,19.95
2022-07-27T19:28:58.632Z,18.54
2022-07-27T19:31:31.797Z,19.25
2022-07-27T19:34:18.635Z,21.23
2022-07-27T19:36:52.739Z,19.50
2022-07-27T19:39:57.529Z,20.88
2022-07-27T19:42:39.631Z,20.33
2022-07-27T19:45:26.704Z,20.90
2022-07-27T19:48:01.524Z,19.05
2022-07-27T19:50:48.660Z,18.60
2022-07-27T19:53:28.635Z,18.75
2022-07-27T19:56:22.665Z,19.95
2022-07-27T19:59:16.703Z,21.25
2022-07-27T20:02:03.814Z,19.08
2022-07-27T20:04:41.173Z,19.70
2022-07-27T20:07:28.649Z,21.20
2022-07-27T20:10:01.777Z,19.67
2022-07-27T20:12:48.652Z,19.85
2022-07-27T20:15:22.446Z,19.77
2022-07-27T20:18:09.667Z,21.25
2022-07-27T20:20:49.636Z,19.05
2022-07-27T20:23:44.703Z,20.00
2022-07-27T20:26:31.673Z,21.83
2022-07-27T20:29:04.775Z,22.80
2022-07-27T20:31:52.168Z,20.02
2022-07-27T20:34:29.792Z,20.85
2022-07-27T20:37:16.680Z,22.35
2022-07-27T20:39:49.941Z,21.92
2022-07-27T20:42:36.685Z,21.95
2022-07-27T20:45:14.996Z,21.73
2022-07-27T20:48:02.696Z,21.83
2022-07-27T20:50:35.752Z,22.60
2022-07-27T20:53:22.688Z,21.70
2022-07-27T20:55:55.775Z,22.17
2022-07-27T20:58:42.673Z,20.98
2022-07-27T21:01:15.952Z,21.70
2022-07-27T21:04:02.686Z,19.80
2022-07-27T21:06:35.796Z,20.83
2022-07-27T21:09:22.689Z,21.75
2022-07-27T21:11:55.797Z,20.40
2022-07-27T21:14:42.708Z,23.45
2022-07-27T21:17:23.742Z,23.52
2022-07-27T21:20:11.736Z,21.55
2022-07-27T21:22:52.728Z,20.65
2022-07-27T21:25:46.705Z,21.42
2022-07-27T21:28:33.729Z,20.77
2022-07-27T21:31:06.809Z,21.55
2022-07-27T21:33:54.854Z,22.75
2022-07-27T21:36:35.709Z,22.05
2022-07-27T21:39:31.723Z,22.42
2022-07-27T21:42:18.779Z,22.38
2022-07-27T21:44:52.634Z,22.60
2022-07-27T21:47:39.725Z,24.83
2022-07-27T21:50:13.805Z,23.58
2022-07-27T21:53:00.707Z,21.95
2022-07-27T21:55:33.909Z,25.00
2022-07-27T21:58:21.754Z,25.13
2022-07-27T22:00:54.908Z,25.17
2022-07-27T22:03:43.750Z,23.73
2022-07-27T22:06:17.881Z,23.88
2022-07-27T22:09:04.727Z,25.33
2022-07-27T22:11:44.843Z,25.15
2022-07-27T22:14:31.730Z,24.67
2022-07-27T22:17:04.978Z,25.02
2022-07-27T22:19:58.748Z,24.08
2022-07-27T22:22:52.803Z,24.23
2022-07-27T22:25:46.714Z,25.13
2022-07-27T22:28:33.729Z,25.58
2022-07-27T22:31:21.587Z,25.42
2022-07-27T22:34:09.898Z,25.60
2022-07-27T22:36:49.719Z,24.70
2022-07-27T22:39:43.770Z,27.48
2022-07-27T22:42:37.738Z,25.90
2022-07-27T22:45:24.812Z,25.63
2022-07-27T22:47:57.821Z,26.50
2022-07-27T22:50:44.751Z,27.33
2022-07-27T22:53:24.765Z,26.20
2022-07-27T22:56:12.748Z,25.88
2022-07-27T22:58:52.767Z,26.33
2022-07-27T23:01:48.268Z,26.00
2022-07-27T23:04:35.744Z,26.02
2022-07-27T23:07:08.863Z,25.90
2022-07-27T23:09:57.187Z,27.27
2022-07-27T23:12:37.758Z,25.88
2022-07-27T23:15:31.772Z,26.77
2022-07-27T23:18:19.841Z,26.27
2022-07-27T23:20:59.828Z,25.50
2022-07-27T23:23:54.320Z,25.83
2022-07-27T23:26:40.788Z,26.98
2022-07-27T23:29:13.869Z,28.73
2022-07-27T23:32:01.895Z,27.90
2022-07-27T23:34:41.775Z,27.90
2022-07-27T23:37:28.770Z,26.10
2022-07-27T23:40:01.863Z,26.83
2022-07-27T23:42:48.784Z,26.75
2022-07-27T23:45:21.989Z,27.08
2022-07-27T23:48:08.784Z,27.02
2022-07-27T23:50:42.938Z,29.17
2022-07-27T23:53:30.766Z,27.65
2022-07-27T23:56:03.877Z,26.67
2022-07-27T23:58:51.822Z,26.67
